PWSweather.com
Personal Weather Stations
Station Observations
KCAOCEAN4
Jeffries Ranch, Oceanside, CA 92057

Jeffries RanchOceanside, CA 92057

Lat: 33.2463208, Lon: -117.25335080000002

Elevation: 207

Station Type: Davis Vantage Vue

jeffriesranchweather.com

High Low Average
Temperature 61.5°F16.4°C 48.6°F9.2°C 56.2°F13.4°C
Dew Point 54.3°F12.4°C 44.8°F7.1°C 49.4°F9.7°C
Winds 8.1 mph 13.0 kmh Calm Calm 4.0 mph SW6.4 kmh SW
Wind Gusts 16.1 mph25.9 kmh 0.9 mph1.4 kmh 8.0 mph12.9 kmh
Humidity 94% 59% 79%
Pressure 30.03 in1016.9 mb 29.87 in1011.5 mb -
Precipitation 0.13 in3.3 mm - -
Hour Temp Dew Point Humidity Winds Wind Gusts Pressure Precip Precip Rate Daily Precip Total
12:09 AM 55.8°F13.2°C 53.2°F11.8°C 91% 0.9 mph S1.4 kmh S 2.9 mph4.7 kmh 29.95 in1014.2 mb 0.00 in0.0 mm 0.00 in0.0 mm 0.00 in0.0 mm
12:19 AM 56.1°F13.4°C 52.9°F11.6°C 89% 0.9 mph SW1.4 kmh SW 2.9 mph4.7 kmh 29.95 in1014.2 mb 0.00 in0.0 mm 0.00 in0.0 mm 0.00 in0.0 mm
12:29 AM 56.3°F13.5°C 52.9°F11.6°C 88% 0.9 mph ESE1.4 kmh ESE 2.0 mph3.2 kmh 29.94 in1013.9 mb 0.00 in0.0 mm 0.00 in0.0 mm 0.00 in0.0 mm
12:39 AM 56.3°F13.5°C 52.9°F11.6°C 88% 0.9 mph SSE1.4 kmh SSE 2.9 mph4.7 kmh 29.93 in1013.5 mb 0.00 in0.0 mm 0.00 in0.0 mm 0.00 in0.0 mm
12:49 AM 56.3°F13.5°C 52.9°F11.6°C 88% 0.9 mph SW1.4 kmh SW 2.9 mph4.7 kmh 29.93 in1013.5 mb 0.00 in0.0 mm 0.00 in0.0 mm 0.00 in0.0 mm
12:59 AM 56.3°F13.5°C 52.9°F11.6°C 88% 0.9 mph WSW1.4 kmh WSW 2.9 mph4.7 kmh 29.93 in1013.5 mb 0.00 in0.0 mm 0.00 in0.0 mm 0.00 in0.0 mm
01:09 AM 56.1°F13.4°C 52.7°F11.5°C 88% 0.9 mph SSE1.4 kmh SSE 2.9 mph4.7 kmh 29.92 in1013.2 mb 0.00 in0.0 mm 0.00 in0.0 mm 0.00 in0.0 mm
01:19 AM 56.3°F13.5°C 52.9°F11.6°C 88% 2.0 mph ESE3.2 kmh ESE 5.0 mph8.0 kmh 29.92 in1013.2 mb 0.00 in0.0 mm 0.00 in0.0 mm 0.00 in0.0 mm
01:29 AM 56.1°F13.4°C 52.9°F11.6°C 89% 2.0 mph S3.2 kmh S 6.9 mph11.1 kmh 29.92 in1013.2 mb 0.00 in0.0 mm 0.00 in0.0 mm 0.00 in0.0 mm
01:39 AM 56.3°F13.5°C 53.1°F11.7°C 89% 2.0 mph SW3.2 kmh SW 6.0 mph9.7 kmh 29.92 in1013.2 mb 0.00 in0.0 mm 0.00 in0.0 mm 0.00 in0.0 mm
01:49 AM 56.5°F13.6°C 53.2°F11.8°C 89% 2.0 mph S3.2 kmh S 4.9 mph7.9 kmh 29.91 in1012.9 mb 0.00 in0.0 mm 0.00 in0.0 mm 0.00 in0.0 mm
01:59 AM 56.5°F13.6°C 53.2°F11.8°C 89% 2.9 mph SE4.7 kmh SE 9.0 mph14.5 kmh 29.91 in1012.9 mb 0.00 in0.0 mm 0.00 in0.0 mm 0.00 in0.0 mm
02:09 AM 56.3°F13.5°C 53.1°F11.7°C 89% 2.9 mph WSW4.7 kmh WSW 6.9 mph11.1 kmh 29.91 in1012.9 mb 0.00 in0.0 mm 0.00 in0.0 mm 0.00 in0.0 mm
02:19 AM 56.1°F13.4°C 52.9°F11.6°C 89% 2.0 mph WSW3.2 kmh WSW 4.9 mph7.9 kmh 29.90 in1012.5 mb 0.00 in0.0 mm 0.00 in0.0 mm 0.00 in0.0 mm
02:29 AM 56.1°F13.4°C 53.2°F11.8°C 90% 2.0 mph SSW3.2 kmh SSW 4.0 mph6.4 kmh 29.90 in1012.5 mb 0.00 in0.0 mm 0.00 in0.0 mm 0.00 in0.0 mm
02:39 AM 56.3°F13.5°C 53.8°F12.1°C 91% 2.9 mph WSW4.7 kmh WSW 8.1 mph13.0 kmh 29.89 in1012.2 mb 0.00 in0.0 mm 0.00 in0.0 mm 0.00 in0.0 mm
02:49 AM 56.7°F13.7°C 54.1°F12.3°C 91% 2.9 mph SW4.7 kmh SW 6.9 mph11.1 kmh 29.89 in1012.2 mb 0.03 in0.8 mm 0.18 in4.6 mm 0.04 in1.0 mm
02:59 AM 56.1°F13.4°C 53.6°F12.0°C 91% 4.0 mph SSE6.4 kmh SSE 13.0 mph20.9 kmh 29.89 in1012.2 mb 0.05 in1.3 mm 0.12 in3.0 mm 0.05 in1.3 mm
03:09 AM 55.9°F13.3°C 53.6°F12.0°C 92% 4.0 mph SW6.4 kmh SW 10.1 mph16.3 kmh 29.89 in1012.2 mb 0.06 in1.5 mm 0.01 in0.3 mm 0.06 in1.5 mm
03:19 AM 55.9°F13.3°C 54.0°F12.2°C 93% 2.9 mph S4.7 kmh S 6.9 mph11.1 kmh 29.88 in1011.9 mb 0.06 in1.5 mm 0.00 in0.0 mm 0.06 in1.5 mm
03:29 AM 55.9°F13.3°C 54.0°F12.2°C 93% 2.9 mph SW4.7 kmh SW 6.9 mph11.1 kmh 29.88 in1011.9 mb 0.06 in1.5 mm 0.00 in0.0 mm 0.06 in1.5 mm
03:39 AM 56.1°F13.4°C 54.1°F12.3°C 93% 4.0 mph S6.4 kmh S 8.1 mph13.0 kmh 29.87 in1011.5 mb 0.06 in1.5 mm 0.00 in0.0 mm 0.06 in1.5 mm
03:49 AM 56.3°F13.5°C 54.3°F12.4°C 93% 4.9 mph SW7.9 kmh SW 12.1 mph19.5 kmh 29.88 in1011.9 mb 0.03 in0.8 mm 0.00 in0.0 mm 0.06 in1.5 mm
03:59 AM 55.2°F12.9°C 52.9°F11.6°C 92% 8.1 mph SW13.0 kmh SW 16.1 mph25.9 kmh 29.89 in1012.2 mb 0.03 in0.8 mm 0.00 in0.0 mm 0.09 in2.3 mm
04:09 AM 54.7°F12.6°C 52.7°F11.5°C 93% 4.9 mph SW7.9 kmh SW 12.1 mph19.5 kmh 29.88 in1011.9 mb 0.03 in0.8 mm 0.00 in0.0 mm 0.09 in2.3 mm
04:19 AM 54.7°F12.6°C 52.7°F11.5°C 93% 4.9 mph SW7.9 kmh SW 11.0 mph17.7 kmh 29.88 in1011.9 mb 0.03 in0.8 mm 0.00 in0.0 mm 0.09 in2.3 mm
04:29 AM 54.9°F12.7°C 52.9°F11.6°C 93% 4.0 mph SE6.4 kmh SE 10.1 mph16.3 kmh 29.88 in1011.9 mb 0.03 in0.8 mm 0.00 in0.0 mm 0.09 in2.3 mm
04:39 AM 54.9°F12.7°C 52.9°F11.6°C 93% 4.9 mph W7.9 kmh W 10.1 mph16.3 kmh 29.88 in1011.9 mb 0.03 in0.8 mm 0.00 in0.0 mm 0.10 in2.5 mm
04:49 AM 54.0°F12.2°C 51.4°F10.8°C 91% 6.0 mph S9.7 kmh S 15.0 mph24.1 kmh 29.88 in1011.9 mb 0.05 in1.3 mm 0.12 in3.0 mm 0.11 in2.8 mm
04:59 AM 53.4°F11.9°C 51.1°F10.6°C 92% 4.9 mph S7.9 kmh S 12.1 mph19.5 kmh 29.88 in1011.9 mb 0.03 in0.8 mm 0.00 in0.0 mm 0.11 in2.8 mm
05:09 AM 53.8°F12.1°C 51.8°F11.0°C 93% 2.9 mph SW4.7 kmh SW 12.0 mph19.3 kmh 29.89 in1012.2 mb 0.02 in0.5 mm 0.00 in0.0 mm 0.11 in2.8 mm
05:19 AM 54.1°F12.3°C 52.5°F11.4°C 94% 4.0 mph SW6.4 kmh SW 8.9 mph14.3 kmh 29.89 in1012.2 mb 0.02 in0.5 mm 0.00 in0.0 mm 0.11 in2.8 mm
05:29 AM 54.7°F12.6°C 53.1°F11.7°C 94% 2.9 mph W4.7 kmh W 8.1 mph13.0 kmh 29.88 in1011.9 mb 0.02 in0.5 mm 0.00 in0.0 mm 0.11 in2.8 mm
05:39 AM 55.0°F12.8°C 53.1°F11.7°C 93% 2.0 mph WSW3.2 kmh WSW 6.0 mph9.7 kmh 29.89 in1012.2 mb 0.02 in0.5 mm 0.00 in0.0 mm 0.11 in2.8 mm
05:49 AM 55.0°F12.8°C 52.7°F11.5°C 92% 2.0 mph W3.2 kmh W 7.0 mph11.3 kmh 29.89 in1012.2 mb 0.01 in0.3 mm 0.00 in0.0 mm 0.12 in3.0 mm
05:59 AM 54.9°F12.7°C 52.5°F11.4°C 92% 2.0 mph SSW3.2 kmh SSW 4.9 mph7.9 kmh 29.89 in1012.2 mb 0.01 in0.3 mm 0.00 in0.0 mm 0.12 in3.0 mm
06:09 AM 54.7°F12.6°C 52.3°F11.3°C 92% 2.9 mph WSW4.7 kmh WSW 12.1 mph19.5 kmh 29.90 in1012.5 mb 0.01 in0.3 mm 0.00 in0.0 mm 0.12 in3.0 mm
06:19 AM 54.9°F12.7°C 52.3°F11.3°C 91% 4.0 mph WSW6.4 kmh WSW 12.1 mph19.5 kmh 29.90 in1012.5 mb 0.01 in0.3 mm 0.00 in0.0 mm 0.12 in3.0 mm
06:29 AM 54.9°F12.7°C 52.3°F11.3°C 91% 2.0 mph SSE3.2 kmh SSE 8.1 mph13.0 kmh 29.90 in1012.5 mb 0.01 in0.3 mm 0.00 in0.0 mm 0.12 in3.0 mm
06:39 AM 55.0°F12.8°C 52.5°F11.4°C 91% 2.0 mph SW3.2 kmh SW 7.0 mph11.3 kmh 29.91 in1012.9 mb 0.01 in0.3 mm 0.00 in0.0 mm 0.12 in3.0 mm
06:49 AM 55.0°F12.8°C 52.5°F11.4°C 91% 0.9 mph SSE1.4 kmh SSE 6.0 mph9.7 kmh 29.91 in1012.9 mb 0.00 in0.0 mm 0.00 in0.0 mm 0.12 in3.0 mm
06:59 AM 55.0°F12.8°C 52.7°F11.5°C 92% 2.0 mph WSW3.2 kmh WSW 4.9 mph7.9 kmh 29.91 in1012.9 mb 0.00 in0.0 mm 0.00 in0.0 mm 0.12 in3.0 mm
07:09 AM 55.0°F12.8°C 52.7°F11.5°C 92% 2.9 mph SW4.7 kmh SW 10.1 mph16.3 kmh 29.91 in1012.9 mb 0.00 in0.0 mm 0.00 in0.0 mm 0.12 in3.0 mm
07:19 AM 55.2°F12.9°C 52.9°F11.6°C 92% 2.9 mph WSW4.7 kmh WSW 6.9 mph11.1 kmh 29.91 in1012.9 mb 0.00 in0.0 mm 0.00 in0.0 mm 0.12 in3.0 mm
07:29 AM 55.4°F13.0°C 52.9°F11.6°C 91% 4.0 mph WNW6.4 kmh WNW 13.0 mph20.9 kmh 29.92 in1013.2 mb 0.00 in0.0 mm 0.00 in0.0 mm 0.12 in3.0 mm
07:39 AM 55.4°F13.0°C 52.9°F11.6°C 91% 8.1 mph W13.0 kmh W 15.0 mph24.1 kmh 29.93 in1013.5 mb 0.00 in0.0 mm 0.00 in0.0 mm 0.12 in3.0 mm
07:49 AM 55.2°F12.9°C 52.7°F11.5°C 91% 6.9 mph W11.1 kmh W 13.0 mph20.9 kmh 29.94 in1013.9 mb 0.01 in0.3 mm 0.06 in1.5 mm 0.13 in3.3 mm
07:59 AM 55.0°F12.8°C 51.8°F11.0°C 89% 6.9 mph WNW11.1 kmh WNW 13.0 mph20.9 kmh 29.94 in1013.9 mb 0.01 in0.3 mm 0.00 in0.0 mm 0.13 in3.3 mm
08:09 AM 55.8°F13.2°C 52.3°F11.3°C 88% 4.9 mph W7.9 kmh W 10.1 mph16.3 kmh 29.95 in1014.2 mb 0.01 in0.3 mm 0.00 in0.0 mm 0.13 in3.3 mm
08:19 AM 55.9°F13.3°C 52.2°F11.2°C 87% 4.9 mph WNW7.9 kmh WNW 13.0 mph20.9 kmh 29.96 in1014.6 mb 0.01 in0.3 mm 0.00 in0.0 mm 0.13 in3.3 mm
08:29 AM 55.6°F13.1°C 52.2°F11.2°C 88% 6.0 mph WSW9.7 kmh WSW 13.0 mph20.9 kmh 29.96 in1014.6 mb 0.01 in0.3 mm 0.00 in0.0 mm 0.13 in3.3 mm
08:39 AM 55.6°F13.1°C 51.8°F11.0°C 87% 6.0 mph NW9.7 kmh NW 10.1 mph16.3 kmh 29.96 in1014.6 mb 0.01 in0.3 mm 0.00 in0.0 mm 0.13 in3.3 mm
08:49 AM 55.4°F13.0°C 51.3°F10.7°C 86% 6.0 mph WNW9.7 kmh WNW 10.1 mph16.3 kmh 29.96 in1014.6 mb 0.00 in0.0 mm 0.00 in0.0 mm 0.13 in3.3 mm
08:59 AM 56.1°F13.4°C 51.6°F10.9°C 85% 4.0 mph WNW6.4 kmh WNW 8.1 mph13.0 kmh 29.97 in1014.9 mb 0.00 in0.0 mm 0.00 in0.0 mm 0.13 in3.3 mm
09:09 AM 56.7°F13.7°C 51.8°F11.0°C 84% 4.0 mph WSW6.4 kmh WSW 10.1 mph16.3 kmh 29.97 in1014.9 mb 0.00 in0.0 mm 0.00 in0.0 mm 0.13 in3.3 mm
09:19 AM 57.4°F14.1°C 51.3°F10.7°C 80% 6.0 mph NW9.7 kmh NW 12.1 mph19.5 kmh 29.98 in1015.2 mb 0.00 in0.0 mm 0.00 in0.0 mm 0.13 in3.3 mm
09:29 AM 57.2°F14.0°C 50.7°F10.4°C 79% 6.9 mph W11.1 kmh W 12.1 mph19.5 kmh 29.98 in1015.2 mb 0.00 in0.0 mm 0.00 in0.0 mm 0.13 in3.3 mm
09:39 AM 57.4°F14.1°C 50.2°F10.1°C 77% 4.9 mph W7.9 kmh W 12.1 mph19.5 kmh 29.99 in1015.6 mb 0.00 in0.0 mm 0.00 in0.0 mm 0.13 in3.3 mm
09:49 AM 57.4°F14.1°C 50.5°F10.3°C 78% 6.9 mph NW11.1 kmh NW 13.0 mph20.9 kmh 29.99 in1015.6 mb 0.00 in0.0 mm 0.00 in0.0 mm 0.13 in3.3 mm
09:59 AM 57.0°F13.9°C 49.8°F9.9°C 77% 6.0 mph WNW9.7 kmh WNW 11.0 mph17.7 kmh 29.99 in1015.6 mb 0.00 in0.0 mm 0.00 in0.0 mm 0.13 in3.3 mm
10:09 AM 57.7°F14.3°C 50.2°F10.1°C 76% 4.9 mph WNW7.9 kmh WNW 10.1 mph16.3 kmh 29.99 in1015.6 mb 0.00 in0.0 mm 0.00 in0.0 mm 0.13 in3.3 mm
10:19 AM 57.9°F14.4°C 49.6°F9.8°C 74% 6.9 mph W11.1 kmh W 11.0 mph17.7 kmh 30.00 in1015.9 mb 0.00 in0.0 mm 0.00 in0.0 mm 0.13 in3.3 mm
10:29 AM 57.9°F14.4°C 49.3°F9.6°C 73% 6.0 mph W9.7 kmh W 12.1 mph19.5 kmh 30.00 in1015.9 mb 0.00 in0.0 mm 0.00 in0.0 mm 0.13 in3.3 mm
10:39 AM 58.3°F14.6°C 50.0°F10.0°C 74% 6.0 mph WSW9.7 kmh WSW 10.1 mph16.3 kmh 30.01 in1016.3 mb 0.00 in0.0 mm 0.00 in0.0 mm 0.13 in3.3 mm
10:49 AM 58.3°F14.6°C 50.0°F10.0°C 74% 4.9 mph WNW7.9 kmh WNW 10.1 mph16.3 kmh 30.01 in1016.3 mb 0.00 in0.0 mm 0.00 in0.0 mm 0.13 in3.3 mm
10:59 AM 58.6°F14.8°C 48.9°F9.4°C 70% 4.0 mph NW6.4 kmh NW 8.1 mph13.0 kmh 30.01 in1016.3 mb 0.00 in0.0 mm 0.00 in0.0 mm 0.13 in3.3 mm
11:09 AM 58.6°F14.8°C 49.3°F9.6°C 71% 6.0 mph WNW9.7 kmh WNW 12.1 mph19.5 kmh 30.01 in1016.3 mb 0.00 in0.0 mm 0.00 in0.0 mm 0.13 in3.3 mm
11:19 AM 59.4°F15.2°C 50.0°F10.0°C 71% 6.0 mph WNW9.7 kmh WNW 11.0 mph17.7 kmh 30.01 in1016.3 mb 0.00 in0.0 mm 0.00 in0.0 mm 0.13 in3.3 mm
11:29 AM 59.0°F15.0°C 48.0°F8.9°C 67% 4.9 mph W7.9 kmh W 11.0 mph17.7 kmh 30.01 in1016.3 mb 0.00 in0.0 mm 0.00 in0.0 mm 0.13 in3.3 mm
11:39 AM 59.4°F15.2°C 48.0°F8.9°C 66% 4.0 mph WSW6.4 kmh WSW 8.1 mph13.0 kmh 30.01 in1016.3 mb 0.00 in0.0 mm 0.00 in0.0 mm 0.13 in3.3 mm
11:49 AM 59.0°F15.0°C 48.9°F9.4°C 69% 4.0 mph SW6.4 kmh SW 8.1 mph13.0 kmh 30.01 in1016.3 mb 0.00 in0.0 mm 0.00 in0.0 mm 0.13 in3.3 mm
11:59 AM 59.2°F15.1°C 49.5°F9.7°C 70% 6.0 mph WNW9.7 kmh WNW 12.1 mph19.5 kmh 30.01 in1016.3 mb 0.00 in0.0 mm 0.00 in0.0 mm 0.13 in3.3 mm
12:09 PM 59.5°F15.3°C 49.8°F9.9°C 70% 6.0 mph W9.7 kmh W 13.0 mph20.9 kmh 30.01 in1016.3 mb 0.00 in0.0 mm 0.00 in0.0 mm 0.13 in3.3 mm
12:19 PM 59.2°F15.1°C 49.8°F9.9°C 71% 4.9 mph WSW7.9 kmh WSW 11.0 mph17.7 kmh 30.01 in1016.3 mb 0.00 in0.0 mm 0.00 in0.0 mm 0.13 in3.3 mm
12:29 PM 58.6°F14.8°C 49.3°F9.6°C 71% 6.0 mph W9.7 kmh W 12.1 mph19.5 kmh 30.01 in1016.3 mb 0.00 in0.0 mm 0.00 in0.0 mm 0.13 in3.3 mm
12:39 PM 59.4°F15.2°C 49.6°F9.8°C 70% 6.9 mph W11.1 kmh W 13.0 mph20.9 kmh 30.01 in1016.3 mb 0.00 in0.0 mm 0.00 in0.0 mm 0.13 in3.3 mm
12:49 PM 59.4°F15.2°C 49.1°F9.5°C 69% 6.9 mph WSW11.1 kmh WSW 13.0 mph20.9 kmh 30.01 in1016.3 mb 0.00 in0.0 mm 0.00 in0.0 mm 0.13 in3.3 mm
12:59 PM 59.7°F15.4°C 49.1°F9.5°C 68% 6.0 mph WNW9.7 kmh WNW 12.1 mph19.5 kmh 30.01 in1016.3 mb 0.00 in0.0 mm 0.00 in0.0 mm 0.13 in3.3 mm
01:09 PM 60.6°F15.9°C 49.3°F9.6°C 66% 6.9 mph WSW11.1 kmh WSW 14.1 mph22.7 kmh 30.00 in1015.9 mb 0.00 in0.0 mm 0.00 in0.0 mm 0.13 in3.3 mm
01:19 PM 60.4°F15.8°C 48.2°F9.0°C 64% 4.9 mph NW7.9 kmh NW 11.0 mph17.7 kmh 30.01 in1016.3 mb 0.00 in0.0 mm 0.00 in0.0 mm 0.13 in3.3 mm
01:29 PM 60.4°F15.8°C 48.2°F9.0°C 64% 6.9 mph W11.1 kmh W 13.0 mph20.9 kmh 30.00 in1015.9 mb 0.00 in0.0 mm 0.00 in0.0 mm 0.13 in3.3 mm
01:39 PM 60.1°F15.6°C 48.7°F9.3°C 66% 6.0 mph NW9.7 kmh NW 11.0 mph17.7 kmh 29.99 in1015.6 mb 0.00 in0.0 mm 0.00 in0.0 mm 0.13 in3.3 mm
01:49 PM 60.4°F15.8°C 49.1°F9.5°C 66% 4.9 mph WSW7.9 kmh WSW 13.0 mph20.9 kmh 29.99 in1015.6 mb 0.00 in0.0 mm 0.00 in0.0 mm 0.13 in3.3 mm
01:59 PM 61.2°F16.2°C 48.4°F9.1°C 63% 4.0 mph WSW6.4 kmh WSW 14.1 mph22.7 kmh 29.98 in1015.2 mb 0.00 in0.0 mm 0.00 in0.0 mm 0.13 in3.3 mm
02:09 PM 61.3°F16.3°C 47.8°F8.8°C 61% 6.0 mph NW9.7 kmh NW 11.0 mph17.7 kmh 29.98 in1015.2 mb 0.00 in0.0 mm 0.00 in0.0 mm 0.13 in3.3 mm
02:19 PM 61.2°F16.2°C 46.8°F8.2°C 59% 4.9 mph W7.9 kmh W 11.0 mph17.7 kmh 29.98 in1015.2 mb 0.00 in0.0 mm 0.00 in0.0 mm 0.13 in3.3 mm
02:29 PM 61.5°F16.4°C 48.0°F8.9°C 61% 4.9 mph SW7.9 kmh SW 12.1 mph19.5 kmh 29.98 in1015.2 mb 0.00 in0.0 mm 0.00 in0.0 mm 0.13 in3.3 mm
02:39 PM 60.6°F15.9°C 46.6°F8.1°C 60% 6.0 mph W9.7 kmh W 13.0 mph20.9 kmh 29.97 in1014.9 mb 0.00 in0.0 mm 0.00 in0.0 mm 0.13 in3.3 mm
02:49 PM 60.8°F16.0°C 47.7°F8.7°C 62% 6.0 mph W9.7 kmh W 14.1 mph22.7 kmh 29.97 in1014.9 mb 0.00 in0.0 mm 0.00 in0.0 mm 0.13 in3.3 mm
02:59 PM 60.6°F15.9°C 47.1°F8.4°C 61% 6.0 mph W9.7 kmh W 14.1 mph22.7 kmh 29.97 in1014.9 mb 0.00 in0.0 mm 0.00 in0.0 mm 0.13 in3.3 mm
03:09 PM 60.6°F15.9°C 46.6°F8.1°C 60% 6.0 mph WNW9.7 kmh WNW 13.0 mph20.9 kmh 29.97 in1014.9 mb 0.00 in0.0 mm 0.00 in0.0 mm 0.13 in3.3 mm
03:19 PM 60.3°F15.7°C 46.8°F8.2°C 61% 6.0 mph WSW9.7 kmh WSW 11.0 mph17.7 kmh 29.97 in1014.9 mb 0.00 in0.0 mm 0.00 in0.0 mm 0.13 in3.3 mm
03:29 PM 60.1°F15.6°C 47.5°F8.6°C 63% 6.9 mph W11.1 kmh W 12.1 mph19.5 kmh 29.96 in1014.6 mb 0.00 in0.0 mm 0.00 in0.0 mm 0.13 in3.3 mm
03:39 PM 60.6°F15.9°C 47.1°F8.4°C 61% 4.9 mph WSW7.9 kmh WSW 11.0 mph17.7 kmh 29.97 in1014.9 mb 0.00 in0.0 mm 0.00 in0.0 mm 0.13 in3.3 mm
03:49 PM 60.8°F16.0°C 46.4°F8.0°C 59% 4.9 mph WNW7.9 kmh WNW 11.0 mph17.7 kmh 29.97 in1014.9 mb 0.00 in0.0 mm 0.00 in0.0 mm 0.13 in3.3 mm
03:59 PM 60.4°F15.8°C 47.3°F8.5°C 62% 4.9 mph SW7.9 kmh SW 12.1 mph19.5 kmh 29.97 in1014.9 mb 0.00 in0.0 mm 0.00 in0.0 mm 0.13 in3.3 mm
04:09 PM 61.5°F16.4°C 48.0°F8.9°C 61% 4.0 mph WNW6.4 kmh WNW 10.1 mph16.3 kmh 29.97 in1014.9 mb 0.00 in0.0 mm 0.00 in0.0 mm 0.13 in3.3 mm
04:19 PM 60.3°F15.7°C 46.4°F8.0°C 60% 4.9 mph WNW7.9 kmh WNW 11.0 mph17.7 kmh 29.97 in1014.9 mb 0.00 in0.0 mm 0.00 in0.0 mm 0.13 in3.3 mm
04:29 PM 60.3°F15.7°C 47.1°F8.4°C 62% 4.9 mph S7.9 kmh S 13.0 mph20.9 kmh 29.96 in1014.6 mb 0.00 in0.0 mm 0.00 in0.0 mm 0.13 in3.3 mm
04:39 PM 59.9°F15.5°C 46.8°F8.2°C 62% 6.0 mph WSW9.7 kmh WSW 12.1 mph19.5 kmh 29.96 in1014.6 mb 0.00 in0.0 mm 0.00 in0.0 mm 0.13 in3.3 mm
04:49 PM 60.1°F15.6°C 47.8°F8.8°C 64% 4.0 mph NW6.4 kmh NW 11.0 mph17.7 kmh 29.96 in1014.6 mb 0.00 in0.0 mm 0.00 in0.0 mm 0.13 in3.3 mm
04:59 PM 60.3°F15.7°C 48.0°F8.9°C 64% 4.0 mph SSE6.4 kmh SSE 10.1 mph16.3 kmh 29.96 in1014.6 mb 0.00 in0.0 mm 0.00 in0.0 mm 0.13 in3.3 mm
05:09 PM 60.3°F15.7°C 47.7°F8.7°C 63% 4.9 mph WNW7.9 kmh WNW 8.9 mph14.3 kmh 29.96 in1014.6 mb 0.00 in0.0 mm 0.00 in0.0 mm 0.13 in3.3 mm
05:19 PM 59.5°F15.3°C 46.0°F7.8°C 61% 6.0 mph W9.7 kmh W 12.1 mph19.5 kmh 29.96 in1014.6 mb 0.00 in0.0 mm 0.00 in0.0 mm 0.13 in3.3 mm
05:29 PM 59.5°F15.3°C 47.8°F8.8°C 65% 4.9 mph WNW7.9 kmh WNW 8.9 mph14.3 kmh 29.96 in1014.6 mb 0.00 in0.0 mm 0.00 in0.0 mm 0.13 in3.3 mm
05:39 PM 59.5°F15.3°C 46.0°F7.8°C 61% 4.0 mph W6.4 kmh W 6.9 mph11.1 kmh 29.96 in1014.6 mb 0.00 in0.0 mm 0.00 in0.0 mm 0.13 in3.3 mm
05:49 PM 60.3°F15.7°C 47.7°F8.7°C 63% 2.0 mph SSW3.2 kmh SSW 6.9 mph11.1 kmh 29.96 in1014.6 mb 0.00 in0.0 mm 0.00 in0.0 mm 0.13 in3.3 mm
05:59 PM 59.5°F15.3°C 47.3°F8.5°C 64% 4.0 mph WSW6.4 kmh WSW 10.1 mph16.3 kmh 29.96 in1014.6 mb 0.00 in0.0 mm 0.00 in0.0 mm 0.13 in3.3 mm
06:09 PM 59.7°F15.4°C 47.5°F8.6°C 64% 2.9 mph SW4.7 kmh SW 6.0 mph9.7 kmh 29.97 in1014.9 mb 0.00 in0.0 mm 0.00 in0.0 mm 0.13 in3.3 mm
06:19 PM 59.7°F15.4°C 48.4°F9.1°C 66% 2.9 mph SSW4.7 kmh SSW 4.9 mph7.9 kmh 29.97 in1014.9 mb 0.00 in0.0 mm 0.00 in0.0 mm 0.13 in3.3 mm
06:29 PM 58.5°F14.7°C 48.0°F8.9°C 68% 2.0 mph SE3.2 kmh SE 6.0 mph9.7 kmh 29.97 in1014.9 mb 0.00 in0.0 mm 0.00 in0.0 mm 0.13 in3.3 mm
06:39 PM 57.4°F14.1°C 47.3°F8.5°C 69% 2.0 mph SW3.2 kmh SW 6.0 mph9.7 kmh 29.97 in1014.9 mb 0.00 in0.0 mm 0.00 in0.0 mm 0.13 in3.3 mm
06:49 PM 56.7°F13.7°C 47.3°F8.5°C 71% 2.0 mph SW3.2 kmh SW 4.9 mph7.9 kmh 29.98 in1015.2 mb 0.00 in0.0 mm 0.00 in0.0 mm 0.13 in3.3 mm
06:59 PM 56.1°F13.4°C 47.3°F8.5°C 72% 0.9 mph WSW1.4 kmh WSW 4.9 mph7.9 kmh 29.97 in1014.9 mb 0.00 in0.0 mm 0.00 in0.0 mm 0.13 in3.3 mm
07:09 PM 55.6°F13.1°C 47.1°F8.4°C 73% 2.0 mph SE3.2 kmh SE 4.9 mph7.9 kmh 29.98 in1015.2 mb 0.00 in0.0 mm 0.00 in0.0 mm 0.13 in3.3 mm
07:19 PM 55.0°F12.8°C 47.3°F8.5°C 75% 0.9 mph SE1.4 kmh SE 2.9 mph4.7 kmh 29.98 in1015.2 mb 0.00 in0.0 mm 0.00 in0.0 mm 0.13 in3.3 mm
07:29 PM 54.9°F12.7°C 47.1°F8.4°C 75% 2.0 mph WSW3.2 kmh WSW 4.9 mph7.9 kmh 29.98 in1015.2 mb 0.00 in0.0 mm 0.00 in0.0 mm 0.13 in3.3 mm
07:39 PM 54.5°F12.5°C 47.1°F8.4°C 76% 0.9 mph SE1.4 kmh SE 2.9 mph4.7 kmh 29.98 in1015.2 mb 0.00 in0.0 mm 0.00 in0.0 mm 0.13 in3.3 mm
07:49 PM 54.1°F12.3°C 46.8°F8.2°C 76% Calm Calm 2.0 mph3.2 kmh 29.98 in1015.2 mb 0.00 in0.0 mm 0.00 in0.0 mm 0.13 in3.3 mm
07:59 PM 54.0°F12.2°C 46.9°F8.3°C 77% 0.9 mph S1.4 kmh S 2.0 mph3.2 kmh 29.99 in1015.6 mb 0.00 in0.0 mm 0.00 in0.0 mm 0.13 in3.3 mm
08:09 PM 53.4°F11.9°C 47.1°F8.4°C 79% Calm Calm 2.0 mph3.2 kmh 29.99 in1015.6 mb 0.00 in0.0 mm 0.00 in0.0 mm 0.13 in3.3 mm
08:19 PM 53.8°F12.1°C 47.5°F8.6°C 79% 0.9 mph SSW1.4 kmh SSW 5.0 mph8.0 kmh 29.99 in1015.6 mb 0.00 in0.0 mm 0.00 in0.0 mm 0.13 in3.3 mm
08:29 PM 53.4°F11.9°C 47.5°F8.6°C 80% 2.0 mph S3.2 kmh S 4.0 mph6.4 kmh 30.00 in1015.9 mb 0.00 in0.0 mm 0.00 in0.0 mm 0.13 in3.3 mm
08:39 PM 53.4°F11.9°C 47.5°F8.6°C 80% 0.9 mph S1.4 kmh S 2.9 mph4.7 kmh 30.00 in1015.9 mb 0.00 in0.0 mm 0.00 in0.0 mm 0.13 in3.3 mm
08:49 PM 53.2°F11.8°C 47.3°F8.5°C 80% 0.9 mph SSE1.4 kmh SSE 2.9 mph4.7 kmh 30.01 in1016.3 mb 0.00 in0.0 mm 0.00 in0.0 mm 0.13 in3.3 mm
08:59 PM 52.7°F11.5°C 47.1°F8.4°C 81% Calm Calm 2.0 mph3.2 kmh 30.01 in1016.3 mb 0.00 in0.0 mm 0.00 in0.0 mm 0.13 in3.3 mm
09:09 PM 51.8°F11.0°C 46.4°F8.0°C 82% Calm Calm 0.9 mph1.4 kmh 30.01 in1016.3 mb 0.00 in0.0 mm 0.00 in0.0 mm 0.13 in3.3 mm
09:19 PM 51.3°F10.7°C 46.6°F8.1°C 84% 0.9 mph SE1.4 kmh SE 2.0 mph3.2 kmh 30.01 in1016.3 mb 0.00 in0.0 mm 0.00 in0.0 mm 0.13 in3.3 mm
09:29 PM 51.1°F10.6°C 46.4°F8.0°C 84% 0.9 mph SE1.4 kmh SE 2.0 mph3.2 kmh 30.01 in1016.3 mb 0.00 in0.0 mm 0.00 in0.0 mm 0.13 in3.3 mm
09:39 PM 50.7°F10.4°C 46.4°F8.0°C 85% Calm Calm 2.0 mph3.2 kmh 30.02 in1016.6 mb 0.00 in0.0 mm 0.00 in0.0 mm 0.13 in3.3 mm
09:49 PM 50.5°F10.3°C 46.2°F7.9°C 85% Calm Calm 0.9 mph1.4 kmh 30.02 in1016.6 mb 0.00 in0.0 mm 0.00 in0.0 mm 0.13 in3.3 mm
09:59 PM 50.2°F10.1°C 46.2°F7.9°C 86% Calm Calm 0.9 mph1.4 kmh 30.02 in1016.6 mb 0.00 in0.0 mm 0.00 in0.0 mm 0.13 in3.3 mm
10:09 PM 50.2°F10.1°C 46.2°F7.9°C 86% Calm Calm 0.9 mph1.4 kmh 30.02 in1016.6 mb 0.00 in0.0 mm 0.00 in0.0 mm 0.13 in3.3 mm
10:19 PM 50.7°F10.4°C 46.4°F8.0°C 85% 0.9 mph ESE1.4 kmh ESE 3.0 mph4.8 kmh 30.02 in1016.6 mb 0.00 in0.0 mm 0.00 in0.0 mm 0.13 in3.3 mm
10:29 PM 51.3°F10.7°C 46.6°F8.1°C 84% 0.9 mph ESE1.4 kmh ESE 2.9 mph4.7 kmh 30.02 in1016.6 mb 0.00 in0.0 mm 0.00 in0.0 mm 0.13 in3.3 mm
10:39 PM 51.4°F10.8°C 46.4°F8.0°C 83% 0.9 mph SE1.4 kmh SE 4.0 mph6.4 kmh 30.02 in1016.6 mb 0.00 in0.0 mm 0.00 in0.0 mm 0.13 in3.3 mm
10:49 PM 51.6°F10.9°C 46.2°F7.9°C 82% 0.9 mph E1.4 kmh E 2.9 mph4.7 kmh 30.02 in1016.6 mb 0.00 in0.0 mm 0.00 in0.0 mm 0.13 in3.3 mm
10:59 PM 51.4°F10.8°C 46.2°F7.9°C 82% 0.9 mph ESE1.4 kmh ESE 4.0 mph6.4 kmh 30.02 in1016.6 mb 0.00 in0.0 mm 0.00 in0.0 mm 0.13 in3.3 mm
11:09 PM 51.3°F10.7°C 46.0°F7.8°C 82% 0.9 mph E1.4 kmh E 4.0 mph6.4 kmh 30.03 in1016.9 mb 0.00 in0.0 mm 0.00 in0.0 mm 0.13 in3.3 mm
11:19 PM 51.3°F10.7°C 46.0°F7.8°C 82% 0.9 mph E1.4 kmh E 2.0 mph3.2 kmh 30.03 in1016.9 mb 0.00 in0.0 mm 0.00 in0.0 mm 0.13 in3.3 mm
11:29 PM 51.4°F10.8°C 45.9°F7.7°C 81% Calm Calm 2.0 mph3.2 kmh 30.03 in1016.9 mb 0.00 in0.0 mm 0.00 in0.0 mm 0.13 in3.3 mm
11:39 PM 51.3°F10.7°C 46.0°F7.8°C 82% Calm Calm 2.9 mph4.7 kmh 30.03 in1016.9 mb 0.00 in0.0 mm 0.00 in0.0 mm 0.13 in3.3 mm
11:50 PM 50.4°F10.2°C 45.3°F7.4°C 83% Calm Calm 2.0 mph3.2 kmh 30.03 in1016.9 mb 0.00 in0.0 mm 0.00 in0.0 mm 0.13 in3.3 mm